Main page
METAR-TAF:

METAR-TAF

Airports :

Cranfield, England

Cranfield Airport

latitude: 52-04N, longitude: 000-37W, elevation: 111 m

Current weather observation

The report was made 39 minutes ago, at 13:20 UTC
Wind 12 kt from the Southwest
Temperature 23°C
Humidity 61%
Pressure 1012 hPa
Visibility 10 km or more
Scattered clouds at a height of 3400 ft

METAR: EGTC 241320Z 23012KT 9999 SCT034 23/15 Q1012

Time: 14:59 (13:59 UTC)

Forecast

The report was made 3 hours and 0 minutes ago, at 10:59 UTC
Forecast valid from 24 at 12 UTC to 24 at 17 UTC
Wind 12 kt from the West/Southwest
Visibility 10 km or more
Scattered clouds at a height of 2500 ft
Probability 30% :
Temporary
from 24 at 12 UTC to 24 at 17 UTC
Wind 15 kt from the West/Southwest with gusts up to 25 kt

TAF: EGTC 241059Z 2412/2417 24012KT 9999 SCT025 PROB30 TEMPO 2412/2417 25015G25KT

Weather observations and forecasts of more than 4000 airports (METAR and TAF reports).

The available stations are represented by yellow and red dots on the map.

Hover mouse over dot to see the name of the station.

Then click to see weather observations and forecasts.

To change the map : click on the green buttons with a black cross to zoom in, on the green button with a dash to zoom out, or on the green arrows for adjacent maps.


METAR-TAF: